• Join FlightAware (Why Join?)
  • Login
  • US Flag 
02:14PM EDT


 

Airport Tracker/Info


-or-


 

Live Flight TrackerFlight Track Log ✈ N654JR ✈ 12-Mar-2014 ✈ KABQ - KADS

Flight Track Log - Related Links

Times and Time Zones

All times are in EDT time to prevent confusion due to time zone crossing. See the N654JR flight status page for this flight to view local times or setup timezone preferences in your user account.

Time Position Orientation Groundspeed Altitude Reporting Facility
EDT Latitude Longitude Course Direction KTS MPH feet Rate Location/Type
11:09PM 35.0272 -106.5964 185° South 102 117 5,800  Level Albuquerque Center
11:10PM 34.9939 -106.6000 185° South 138 159 6,400 600 Climbing Albuquerque Center
11:11PM 34.9719 -106.6081 197° South 134 154 6,900 780 Climbing Albuquerque Center
11:11PM 34.9542 -106.6178 204° Southwest 138 159 7,300 960 Climbing Albuquerque Center
11:12PM 34.9303 -106.6264 196° South 132 152 7,900 900 Climbing Albuquerque Center
11:12PM 34.9172 -106.6250 175° South 131 151 8,200 780 Climbing Albuquerque Center
11:13PM 34.8892 -106.6242 179° South 130 150 8,800 420 Climbing Albuquerque Center
11:14PM 34.8567 -106.6206 175° South 133 153 9,000 180 Climbing Albuquerque Center
11:14PM 34.8525 -106.6208 183° South 136 157 9,000 540 Level Albuquerque Center
11:15PM 34.8111 -106.6172 176° South 159 183 9,600 660 Climbing Albuquerque Center
11:15PM 34.8075 -106.6194 207° Southwest 163 188 9,700 960 Climbing Albuquerque Center
11:16PM 34.7789 -106.6144 172° South 120 138 10,600 960 Climbing Albuquerque Center
11:16PM 34.7700 -106.6136 176° South 112 129 10,800 540 Climbing Albuquerque Center
11:17PM 34.7403 -106.5903 147° Southeast 156 180 11,300 480 Climbing Albuquerque Center
11:18PM 34.7267 -106.5517 113° Southeast 156 180 11,700 540 Climbing Albuquerque Center
11:18PM 34.7231 -106.5406 112° Southeast 163 188 11,900 540 Climbing Albuquerque Center
11:19PM 34.7092 -106.5019 114° Southeast 162 186 12,300 540 Climbing Albuquerque Center
11:20PM 34.6897 -106.4489 114° Southeast 171 197 13,000 660 Climbing Albuquerque Center
11:21PM 34.6697 -106.3964 115° Southeast 169 194 13,700 720 Climbing Albuquerque Center
11:22PM 34.6667 -106.3289 93° East 172 198 14,500 660 Climbing Albuquerque Center
11:23PM 34.6644 -106.2728 93° East 168 193 15,100 600 Climbing Albuquerque Center
11:24PM 34.6628 -106.2131 92° East 175 201 15,800 540 Climbing Albuquerque Center
11:25PM 34.6603 -106.1600 93° East 175 201 16,300 540 Climbing Albuquerque Center
11:26PM 34.6583 -106.0872 92° East 178 205 17,000 540 Climbing Albuquerque Center
11:27PM 34.6556 -106.0256 93° East 182 209 17,500 360 Climbing Albuquerque Center
11:28PM 34.6533 -105.9639 92° East 183 211 17,800 420 Climbing Albuquerque Center
11:29PM 34.6503 -105.9006 93° East 185 213 18,400 480 Climbing Albuquerque Center
11:30PM 34.6492 -105.8411 91° East 185 213 18,900 480 Climbing Albuquerque Center
11:31PM 34.6458 -105.7753 94° East 191 220 19,400 540 Climbing Albuquerque Center
11:32PM 34.6436 -105.6983 92° East 194 223 20,000 540 Climbing Albuquerque Center
11:33PM 34.6408 -105.6314 93° East 197 227 20,600 480 Climbing Albuquerque Center
11:34PM 34.6378 -105.5636 93° East 199 229 21,000 420 Climbing Albuquerque Center
11:35PM 34.6353 -105.4953 93° East 200 230 21,500 600 Climbing Albuquerque Center
11:36PM 34.6314 -105.4247 94° East 205 236 22,300 660 Climbing Albuquerque Center
11:37PM 34.6292 -105.3619 92° East 193 222 22,900 300 Climbing Albuquerque Center
11:38PM 34.6261 -105.2933 93° East 198 228 23,000  Climbing Albuquerque Center
11:40PM 34.6189 -105.1297 94° East 240 276 23,000  Level Albuquerque Center
11:41PM 34.6156 -105.0458 93° East 246 283 23,000  Level Albuquerque Center
11:42PM 34.6111 -104.9611 94° East 248 285 23,000  Level Albuquerque Center
11:43PM 34.6072 -104.8761 93° East 250 288 23,000  Level Albuquerque Center
11:44PM 34.6033 -104.7914 93° East 250 288 23,000  Level Albuquerque Center
11:45PM 34.5981 -104.6925 94° East 251 289 23,000  Level Albuquerque Center
11:46PM 34.5939 -104.6075 93° East 250 288 23,000 300 Level Albuquerque Center
11:47PM 34.5900 -104.5242 93° East 248 285 23,700 600 Climbing Albuquerque Center
11:49PM 34.5861 -104.4547 94° East 216 249 24,300 540 Climbing Albuquerque Center
11:50PM 34.5719 -104.3839 104° East 214 246 24,800 300 Climbing Albuquerque Center
11:51PM 34.5597 -104.3106 101° East 217 250 25,000 60 Climbing Albuquerque Center
11:52PM 34.5456 -104.2317 102° East 230 265 25,000  Level Albuquerque Center
11:53PM 34.5297 -104.1417 102° East 260 299 25,000  Level Albuquerque Center
11:54PM 34.5139 -104.0514 102° East 270 311 25,000  Level Albuquerque Center
11:55PM 34.4972 -103.9633 103° East 269 310 25,000  Level Albuquerque Center
11:56PM 34.4806 -103.8747 103° East 268 308 25,000  Level Albuquerque Center
11:57PM 34.4644 -103.7850 102° East 270 311 25,000  Level Albuquerque Center
11:58PM 34.4458 -103.6819 102° East 268 308 25,000  Level Albuquerque Center
11:59PM 34.4286 -103.5942 103° East 267 307 25,000  Level Albuquerque Center
12:00AM 34.4122 -103.5036 102° East 271 312 25,000  Level Albuquerque Center
12:01AM 34.3972 -103.4131 101° East 272 313 25,000  Level Albuquerque Center
12:02AM 34.3806 -103.3239 103° East 272 313 25,000  Level Albuquerque Center
12:03AM 34.3617 -103.2361 105° East 270 311 25,000  Level Albuquerque Center
12:04AM 34.3467 -103.1486 102° East 266 306 25,000  Level Albuquerque Center
12:05AM 34.3283 -103.0581 104° East 272 313 25,000  Level Albuquerque Center
12:06AM 34.3119 -102.9739 103° East 274 315 25,000  Level Albuquerque Center
12:07AM 34.2922 -102.8686 103° East 271 312 25,000  Level Albuquerque Center
12:08AM 34.2719 -102.7614 103° East 272 313 25,000  Level Albuquerque Center
12:09AM 34.2547 -102.6731 103° East 271 312 25,000  Level Albuquerque Center
12:10AM 34.2372 -102.5861 104° East 269 310 25,000  Level Albuquerque Center
12:11AM 34.2208 -102.4978 103° East 270 311 25,000  Level Albuquerque Center
12:12AM 34.2047 -102.4167 103° East 270 311 25,000  Level Albuquerque Center
12:13AM 34.1872 -102.3269 103° East 273 314 25,000  Level Albuquerque Center
12:14AM 34.1694 -102.2389 104° East 272 313 25,000  Level Albuquerque Center
12:15AM 34.1522 -102.1506 103° East 270 311 25,000  Level Albuquerque Center
12:16AM 34.1350 -102.0611 103° East 272 313 25,000  Level Albuquerque Center
12:17AM 34.1231 -102.0028 104° East 273 314 25,000  Level Fort Worth Center
12:18AM 34.1050 -101.9147 104° East 272 313 25,000  Level Fort Worth Center
12:19AM 34.0839 -101.8086 103° East 273 314 25,000  Level Fort Worth Center
12:20AM 34.0667 -101.7214 103° East 271 312 25,000  Level Fort Worth Center
12:21AM 34.0492 -101.6322 103° East 271 312 25,000  Level Fort Worth Center
12:22AM 34.0311 -101.5456 104° East 271 312 25,000  Level Fort Worth Center
12:23AM 34.0131 -101.4575 104° East 270 311 25,000  Level Fort Worth Center
12:24AM 33.9953 -101.3692 104° East 271 312 25,000  Level Fort Worth Center
12:25AM 33.9778 -101.2786 103° East 276 318 25,000  Level Fort Worth Center
12:26AM 33.9594 -101.1914 104° East 275 316 25,000  Level Fort Worth Center
12:27AM 33.9414 -101.1025 104° East 275 316 25,000  Level Fort Worth Center
12:28AM 33.9233 -101.0183 104° East 275 316 25,000  Level Fort Worth Center
12:29AM 33.9056 -100.9292 103° East 275 316 25,000  Level Fort Worth Center
12:30AM 33.8861 -100.8419 105° East 275 316 25,000  Level Fort Worth Center
12:31AM 33.8678 -100.7539 104° East 272 313 25,000  Level Fort Worth Center
12:32AM 33.8489 -100.6664 105° East 272 313 25,000  Level Fort Worth Center
12:33AM 33.8294 -100.5786 105° East 272 313 25,000  Level Fort Worth Center
12:34AM 33.8117 -100.4881 103° East 273 314 25,000  Level Fort Worth Center
12:35AM 33.7872 -100.3814 105° East 276 318 25,000  Level Fort Worth Center
12:36AM 33.7683 -100.2914 104° East 277 319 25,000  Level Fort Worth Center
12:37AM 33.7497 -100.2033 104° East 276 318 25,000  Level Fort Worth Center
12:38AM 33.7303 -100.1158 105° East 276 318 25,000  Level Fort Worth Center
12:39AM 33.7111 -100.0281 105° East 274 315 25,000  Level Fort Worth Center
12:40AM 33.6917 -99.9394 105° East 274 315 25,000 -120 Level Fort Worth Center
12:41AM 33.6719 -99.8500 105° East 274 315 24,800 -360 Descending Fort Worth Center
12:42AM 33.6517 -99.7564 105° East 283 326 24,300 -420 Descending Fort Worth Center
12:43AM 33.6306 -99.6617 105° East 289 333 24,000 -180 Descending Fort Worth Center
12:44AM 33.6111 -99.5717 105° East 284 327 24,000  Level Fort Worth Center
12:45AM 33.5911 -99.4844 105° East 275 316 24,000  Level Fort Worth Center
12:46AM 33.5719 -99.3967 105° East 274 315 24,000  Level Fort Worth Center
12:47AM 33.5528 -99.3097 105° East 271 312 24,000 -240 Level Fort Worth Center
12:48AM 33.5322 -99.2203 105° East 274 315 23,600 -720 Descending Fort Worth Center
12:49AM 33.5111 -99.1250 105° East 292 336 22,600 -1,080 Descending Fort Worth Center
12:50AM 33.4872 -99.0206 105° East 304 350 21,500 -1,020 Descending Fort Worth Center
12:51AM 33.4667 -98.9303 105° East 296 341 20,600 -960 Descending Fort Worth Center
12:52AM 33.4450 -98.8339 105° East 290 334 19,600 -900 Descending Fort Worth Center
12:53AM 33.4250 -98.7447 105° East 288 331 18,800 -840 Descending Fort Worth Center
12:54AM 33.4050 -98.6578 105° East 284 327 18,000 -720 Descending Fort Worth Center
12:55AM 33.3831 -98.5631 105° East 282 325 17,400 -780 Descending Fort Worth Center
12:56AM 33.3622 -98.4717 105° East 274 315 16,500 -900 Descending Fort Worth Center
12:57AM 33.3428 -98.3908 106° East 266 306 15,700 -780 Descending Fort Worth Center
12:58AM 33.3233 -98.3078 106° East 251 289 15,000 -720 Descending Fort Worth Center
12:59AM 33.3064 -98.2356 106° East 238 274 14,300 -720 Descending Fort Worth Center
01:00AM 33.2886 -98.1583 105° East 233 268 13,600 -720 Descending Fort Worth Center
01:01AM 33.2719 -98.0886 106° East 220 253 12,900 -660 Descending Fort Worth Center
01:02AM 33.2553 -98.0208 106° East 214 246 12,300 -660 Descending Fort Worth Center
01:03AM 33.2389 -97.9533 106° East 212 244 11,600 -660 Descending Fort Worth Center
01:04AM 33.2236 -97.8878 106° East 208 239 11,000 -600 Descending Fort Worth Center
01:05AM 33.2075 -97.8214 106° East 208 239 10,400 -600 Descending Fort Worth Center
01:06AM 33.1922 -97.7569 106° East 203 234 9,800 -600 Descending Fort Worth Center
01:07AM 33.1775 -97.6936 106° East 201 231 9,200 -600 Descending Fort Worth Center
01:08AM 33.1611 -97.6289 107° East 201 231 8,600 -660 Descending Fort Worth Center
01:09AM 33.1500 -97.5833 106° East 202 232 8,100 -660 Descending Dallas / Fort Worth TRACON
01:10AM 33.1333 -97.5167 107° East 201 231 7,500 -600 Descending Dallas / Fort Worth TRACON
01:11AM 33.1167 -97.4500 107° East 200 230 6,900 -660 Descending Dallas / Fort Worth TRACON
01:12AM 33.1167 -97.4167 90° East 196 226 6,500 -600 Descending Dallas / Fort Worth TRACON
01:12AM 33.1106 -97.3728 99° East 199 229 6,200 -600 Descending Fort Worth Center
01:13AM 33.1031 -97.3100 98° East 195 224 5,600 -600 Descending Fort Worth Center
01:14AM 33.0956 -97.2461 98° East 195 224 5,000 -600 Descending Fort Worth Center
01:15AM 33.0878 -97.1817 98° East 195 224 4,400 -600 Descending Fort Worth Center
01:16AM 33.0814 -97.1178 97° East 195 224 3,900 -480 Descending Fort Worth Center
01:17AM 33.0750 -97.0547 97° East 195 224 3,500 -300 Descending Fort Worth Center
01:18AM 33.0592 -97.0003 109° East 181 208 3,300 -600 Descending Fort Worth Center
01:19AM 33.0286 -96.9458 124° Southeast 193 222 2,400 -900 Descending Fort Worth Center
01:20AM 33.0094 -96.8911 113° Southeast 182 209 1,600 -600 Descending Fort Worth Center
01:21AM 32.9958 -96.8472 110° East 130 150 1,200 -480 Descending Fort Worth Center
01:22AM 32.9753 -96.8381 159° South 106 122 700 -540 Descending Fort Worth Center